Time;durP1;ratioP1;P1;durP2;ratioP2;P2;SDS_P1;SDS_P2;PMS_P1;PMS_P2;Temp;Humidity;BMP_temperature;BMP_pressure;BME280_temperature;BME280_humidity;BME280_pressure;Samples;Min_cycle;Max_cycle;Signal;HPM_P1;HPM_P2
2021/06/09 00:00:26;;;;;;;25.41;17.99;;;;;;;16.00;77.00;100147.47;466938;110;924009;-68
2021/06/09 00:01:37;;;;;;;22.37;17.82;;;;;;;16.00;77.06;100146.63;476063;110;922747;-69
2021/06/09 00:02:41;;;;;;;23.29;17.47;;;;;;;16.01;77.16;100143.63;464240;112;924508;-68
2021/06/09 00:03:49;;;;;;;24.74;17.18;;;;;;;16.03;77.19;100137.88;468430;110;924146;-69
2021/06/09 00:04:53;;;;;;;22.71;16.70;;;;;;;16.05;77.16;100138.42;474006;110;923996;-67
2021/06/09 00:06:01;;;;;;;22.62;16.41;;;;;;;16.06;77.21;100137.34;475020;109;923977;-67
2021/06/09 00:07:05;;;;;;;24.57;17.29;;;;;;;16.07;77.22;100137.09;474518;110;925310;-68
2021/06/09 00:08:11;;;;;;;20.36;16.09;;;;;;;16.10;77.05;100133.80;474422;109;924136;-67
2021/06/09 00:09:19;;;;;;;24.64;16.84;;;;;;;16.11;76.93;100132.72;475963;110;924337;-66
2021/06/09 00:10:25;;;;;;;25.42;16.93;;;;;;;16.10;76.83;100128.30;475598;110;923893;-68
2021/06/09 00:11:31;;;;;;;22.58;17.48;;;;;;;16.08;76.77;100136.00;476871;109;925377;-70
2021/06/09 00:12:36;;;;;;;23.62;17.66;;;;;;;16.07;76.77;100141.76;474827;110;926049;-67
2021/06/09 00:13:40;;;;;;;26.94;18.77;;;;;;;16.04;76.76;100136.80;475502;110;925078;-65
2021/06/09 00:14:51;;;;;;;25.03;18.47;;;;;;;16.01;76.79;100135.38;475569;109;922679;-69
2021/06/09 00:16:12;;;;;;;22.08;17.86;;;;;;;15.99;76.81;100143.05;474351;109;922965;-68
2021/06/09 00:17:18;;;;;;;28.82;19.46;;;;;;;15.97;76.88;100130.67;474227;109;924058;-68
2021/06/09 00:18:22;;;;;;;34.87;20.59;;;;;;;15.94;76.93;100131.17;474923;109;922721;-67
2021/06/09 00:19:27;;;;;;;29.28;21.34;;;;;;;15.93;77.06;100127.63;466988;112;925714;-67
2021/06/09 00:20:33;;;;;;;37.26;21.03;;;;;;;15.93;77.13;100124.05;469324;110;927444;-67
2021/06/09 00:21:39;;;;;;;39.09;21.21;;;;;;;15.94;77.10;100123.76;468103;112;924035;-67
2021/06/09 00:22:43;;;;;;;27.21;19.54;;;;;;;15.94;77.14;100121.02;467960;110;923286;-68
2021/06/09 00:23:47;;;;;;;28.44;20.67;;;;;;;15.93;77.11;100130.38;475084;110;930318;-69
2021/06/09 00:24:51;;;;;;;29.62;20.22;;;;;;;15.93;77.12;100135.04;475720;110;922395;-69
2021/06/09 00:26:01;;;;;;;24.17;19.61;;;;;;;15.91;77.10;100129.80;468611;111;924732;-67
2021/06/09 00:27:09;;;;;;;29.08;19.82;;;;;;;15.90;77.11;100121.80;469662;109;925326;-69
2021/06/09 00:28:20;;;;;;;27.32;19.96;;;;;;;15.88;77.11;100124.80;475673;110;923736;-68
2021/06/09 00:29:27;;;;;;;25.55;18.18;;;;;;;15.88;77.21;100122.05;475751;109;925047;-68
2021/06/09 00:30:36;;;;;;;22.02;18.67;;;;;;;15.87;77.29;100123.17;474564;107;924121;-69
2021/06/09 00:31:45;;;;;;;28.93;19.74;;;;;;;15.88;77.40;100124.80;469307;111;924474;-67
2021/06/09 00:32:50;;;;;;;28.47;18.68;;;;;;;15.89;77.48;100115.47;469698;111;924525;-70
2021/06/09 00:33:56;;;;;;;26.09;18.46;;;;;;;15.92;77.43;100119.63;469481;110;924332;-69
2021/06/09 00:35:05;;;;;;;26.02;18.16;;;;;;;15.93;77.43;100122.13;474277;110;925881;-67
2021/06/09 00:36:16;;;;;;;24.65;18.56;;;;;;;15.96;77.35;100121.59;474987;110;922554;-69
2021/06/09 00:37:23;;;;;;;22.31;16.47;;;;;;;16.00;77.30;100116.39;471242;111;924136;-68
2021/06/09 00:38:29;;;;;;;21.74;15.57;;;;;;;16.00;77.10;100117.22;466400;112;923952;-68
2021/06/09 00:39:34;;;;;;;18.95;15.15;;;;;;;16.00;76.91;100130.97;469371;110;923972;-68
2021/06/09 00:40:39;;;;;;;20.59;15.06;;;;;;;16.00;76.79;100125.47;475226;110;924007;-67
2021/06/09 00:41:49;;;;;;;22.32;15.31;;;;;;;15.98;76.67;100124.92;474912;110;923895;-68
2021/06/09 00:43:11;;;;;;;17.78;15.48;;;;;;;15.97;76.56;100123.25;474173;110;922510;-67
2021/06/09 00:44:15;;;;;;;23.01;15.63;;;;;;;15.95;76.64;100119.09;474289;110;924032;-68
2021/06/09 00:45:24;;;;;;;17.61;15.81;;;;;;;15.94;76.82;100117.42;475029;109;924002;-68
2021/06/09 00:46:34;;;;;;;;;;;;;;;15.96;76.89;100123.50;479226;109;923407;-66
2021/06/09 00:47:43;;;;;;;21.25;13.86;;;;;;;15.98;76.87;100129.59;475927;110;923840;-68
2021/06/09 00:48:48;;;;;;;16.48;13.84;;;;;;;15.98;76.80;100126.84;476045;110;924477;-68
2021/06/09 00:49:54;;;;;;;16.88;14.72;;;;;;;15.99;76.71;100131.25;473543;110;924130;-68
2021/06/09 00:51:02;;;;;;;15.82;14.19;;;;;;;15.99;76.54;100125.75;468920;111;926171;-67
2021/06/09 00:52:06;;;;;;;18.91;15.43;;;;;;;15.96;76.43;100129.84;467636;110;922662;-67
2021/06/09 00:54:38;;;;;;;14.31;12.92;;;;;;;15.93;76.35;100127.63;464569;111;924180;-70
2021/06/09 00:55:45;;;;;;;15.12;12.98;;;;;;;15.92;76.29;100127.88;455421;113;924061;-69
2021/06/09 00:57:02;;;;;;;20.92;13.23;;;;;;;15.89;76.27;100129.22;463369;110;923813;-65
2021/06/09 00:58:11;;;;;;;14.48;12.12;;;;;;;15.86;76.21;100124.25;476497;110;923791;-63
2021/06/09 00:59:30;;;;;;;16.81;11.87;;;;;;;15.81;76.24;100125.03;475347;110;924032;-65
2021/06/09 01:00:46;;;;;;;11.55;10.42;;;;;;;15.75;76.26;100117.00;475337;110;923824;-67
2021/06/09 01:02:12;;;;;;;10.82;9.72;;;;;;;15.71;76.36;100118.61;473777;110;923863;-65
2021/06/09 01:03:29;;;;;;;11.97;10.48;;;;;;;15.65;76.46;100117.73;473671;110;924227;-65
2021/06/09 01:04:45;;;;;;;10.93;9.97;;;;;;;15.60;76.54;100117.65;473023;110;925643;-65
2021/06/09 01:06:09;;;;;;;13.96;9.73;;;;;;;15.57;76.67;100120.09;470809;112;924042;-66
2021/06/09 01:07:35;;;;;;;10.57;9.48;;;;;;;15.54;76.78;100118.71;454846;114;924220;-66
2021/06/09 01:09:10;;;;;;;11.60;10.33;;;;;;;15.53;76.88;100121.70;453627;114;923964;-66
2021/06/09 01:10:30;;;;;;;11.64;10.59;;;;;;;15.51;77.13;100118.34;471759;109;924030;-65
2021/06/09 01:11:47;;;;;;;14.25;11.21;;;;;;;15.53;77.27;100127.20;474056;110;922961;-66
2021/06/09 01:13:01;;;;;;;16.41;11.16;;;;;;;15.55;77.30;100125.84;476610;110;926112;-63
2021/06/09 01:14:15;;;;;;;11.69;10.57;;;;;;;15.57;77.30;100122.84;473763;109;925392;-66
2021/06/09 01:16:51;;;;;;;13.47;11.70;;;;;;;15.62;77.08;100122.89;476486;109;922548;-67
2021/06/09 01:17:56;;;;;;;15.93;12.86;;;;;;;15.63;76.89;100128.14;467553;112;923962;-68
2021/06/09 01:19:02;;;;;;;16.26;13.63;;;;;;;15.60;76.85;100125.89;468745;109;922589;-69
2021/06/09 01:20:08;;;;;;;15.45;13.79;;;;;;;15.58;76.76;100125.34;477807;109;925246;-68
2021/06/09 01:21:12;;;;;;;20.57;15.11;;;;;;;15.56;76.75;100124.76;477745;109;924081;-68
2021/06/09 01:22:36;;;;;;;20.86;14.12;;;;;;;15.56;76.76;100121.18;477517;109;922568;-67
2021/06/09 01:23:41;;;;;;;18.38;14.44;;;;;;;15.54;76.78;100124.20;454716;114;922619;-66
2021/06/09 01:24:45;;;;;;;27.69;19.57;;;;;;;15.53;76.77;100118.96;466690;109;922501;-68
2021/06/09 01:25:51;;;;;;;28.98;22.76;;;;;;;15.52;76.82;100123.62;477102;109;923880;-68
2021/06/09 01:27:00;;;;;;;26.62;23.16;;;;;;;15.52;76.90;100120.05;476125;109;924984;-68
2021/06/09 01:28:06;;;;;;;30.29;24.01;;;;;;;15.51;76.97;100123.84;471047;112;930352;-69
2021/06/09 01:29:11;;;;;;;28.03;23.99;;;;;;;15.49;76.98;100128.78;472036;109;924014;-67
2021/06/09 01:30:45;;;;;;;28.04;24.22;;;;;;;15.45;77.05;100123.79;476893;109;927533;-65
2021/06/09 01:31:59;;;;;;;31.53;23.43;;;;;;;15.43;77.09;100128.73;476718;109;924033;-67
2021/06/09 01:33:11;;;;;;;28.56;22.14;;;;;;;15.41;77.16;100119.07;468968;111;925030;-66
2021/06/09 01:34:23;;;;;;;30.00;22.79;;;;;;;15.39;77.21;100116.58;468100;111;923821;-67
2021/06/09 01:35:30;;;;;;;24.88;20.04;;;;;;;15.37;77.21;100118.77;472217;109;924262;-68
2021/06/09 01:36:42;;;;;;;23.53;19.71;;;;;;;15.37;77.23;100123.43;475926;109;923293;-68
2021/06/09 01:37:46;;;;;;;;;;;;;;;15.35;77.28;100118.19;465162;113;923459;-68
2021/06/09 01:38:53;;;;;;;20.24;17.22;;;;;;;15.33;77.35;100117.59;462102;110;923910;-68
2021/06/09 01:39:59;;;;;;;16.89;15.17;;;;;;;15.30;77.40;100123.62;477788;109;928463;-68
2021/06/09 01:41:05;;;;;;;18.34;13.24;;;;;;;15.28;77.44;100120.29;478150;109;924141;-68
2021/06/09 01:42:09;;;;;;;13.73;12.32;;;;;;;15.27;77.47;100129.61;473661;111;923892;-69
2021/06/09 01:43:15;;;;;;;13.82;12.49;;;;;;;15.28;77.46;100125.78;471480;109;924113;-69
2021/06/09 01:44:21;;;;;;;14.39;12.96;;;;;;;15.27;77.48;100131.56;476620;109;924026;-70
2021/06/09 01:45:29;;;;;;;15.19;12.03;;;;;;;15.28;77.47;100133.19;470028;112;925408;-70
2021/06/09 01:46:36;;;;;;;12.84;11.14;;;;;;;15.27;77.50;100129.61;463562;113;923783;-70
2021/06/09 01:47:45;;;;;;;12.50;11.06;;;;;;;15.25;77.51;100126.31;463263;114;924066;-69
2021/06/09 01:48:52;;;;;;;11.72;10.63;;;;;;;15.25;77.44;100125.48;455673;114;923959;-71
2021/06/09 01:50:04;;;;;;;17.79;11.35;;;;;;;15.24;77.43;100124.65;461487;114;925425;-70
2021/06/09 01:51:10;;;;;;;14.27;11.59;;;;;;;15.22;77.49;100125.97;463325;113;924035;-72
2021/06/09 01:52:20;;;;;;;12.57;10.98;;;;;;;15.21;77.57;100124.34;441486;116;924155;-71
2021/06/09 01:53:24;;;;;;;13.49;11.24;;;;;;;15.20;77.60;100125.42;464879;112;923886;-70
2021/06/09 01:54:31;;;;;;;11.52;10.38;;;;;;;15.19;77.63;100131.99;469495;109;924065;-70
2021/06/09 01:55:43;;;;;;;11.68;10.51;;;;;;;15.18;77.65;100122.92;474111;109;924003;-69
2021/06/09 01:56:54;;;;;;;19.27;10.12;;;;;;;15.18;77.67;100130.33;473775;111;924022;-72
2021/06/09 01:57:59;;;;;;;13.33;10.96;;;;;;;15.18;77.70;100131.16;474676;109;923285;-70
2021/06/09 01:59:14;;;;;;;11.67;10.40;;;;;;;15.22;77.80;100134.22;475694;109;923982;-71
2021/06/09 02:00:25;;;;;;;12.21;10.63;;;;;;;15.25;77.86;100131.80;478460;109;924000;-70
2021/06/09 02:01:31;;;;;;;11.93;10.63;;;;;;;15.30;77.87;100133.78;476727;109;922512;-69
2021/06/09 02:02:39;;;;;;;15.66;11.39;;;;;;;15.35;77.81;100137.41;476921;109;922557;-69
2021/06/09 02:03:45;;;;;;;11.22;10.18;;;;;;;15.40;77.73;100131.14;477847;109;923977;-69
2021/06/09 02:04:56;;;;;;;11.53;10.36;;;;;;;15.45;77.55;100131.20;471437;111;924509;-70
2021/06/09 02:06:01;;;;;;;11.78;10.57;;;;;;;15.48;77.48;100130.70;473496;109;924955;-70
2021/06/09 02:07:23;;;;;;;11.67;10.33;;;;;;;15.51;77.39;100126.59;473274;112;923909;-68
2021/06/09 02:08:37;;;;;;;11.92;10.28;;;;;;;15.52;77.28;100131.87;471241;109;922974;-69
2021/06/09 02:09:43;;;;;;;12.89;11.64;;;;;;;15.51;77.23;100130.17;475437;109;925771;-72
2021/06/09 02:11:09;;;;;;;13.82;10.04;;;;;;;15.51;77.20;100129.34;477383;109;924121;-72
2021/06/09 02:12:31;;;;;;;11.33;10.37;;;;;;;15.49;77.19;100129.62;477750;109;924037;-69
2021/06/09 02:13:48;;;;;;;13.78;10.08;;;;;;;15.48;77.26;100127.12;481334;109;924020;-71
2021/06/09 02:15:02;;;;;;;14.33;10.08;;;;;;;15.46;77.28;100121.87;468979;112;924136;-71
2021/06/09 02:16:07;;;;;;;12.33;11.09;;;;;;;15.45;77.35;100120.20;473847;109;926487;-69
2021/06/09 02:17:12;;;;;;;13.56;10.99;;;;;;;15.48;77.46;100124.38;470178;110;924186;-69
2021/06/09 02:18:21;;;;;;;14.24;11.76;;;;;;;15.49;77.48;100124.13;470776;109;922887;-70
2021/06/09 02:19:33;;;;;;;13.29;12.12;;;;;;;15.52;77.51;100125.54;475623;109;925802;-67
2021/06/09 02:20:56;;;;;;;12.32;11.27;;;;;;;15.54;77.51;100123.38;475635;109;924246;-66
2021/06/09 02:22:29;;;;;;;13.03;11.81;;;;;;;15.55;77.50;100136.03;477076;109;924056;-65
2021/06/09 02:23:54;;;;;;;12.56;11.28;;;;;;;15.55;77.56;100136.03;467070;113;930217;-66
2021/06/09 02:25:10;;;;;;;13.63;12.10;;;;;;;15.56;77.74;100138.50;465362;113;922726;-67
2021/06/09 02:26:18;;;;;;;13.17;12.04;;;;;;;15.58;77.63;100144.58;465941;112;925516;-67
2021/06/09 02:27:33;;;;;;;14.24;12.59;;;;;;;15.60;77.58;100145.13;467297;113;924129;-67
2021/06/09 02:28:42;;;;;;;13.38;12.11;;;;;;;15.62;77.56;100153.13;458337;115;926218;-67
2021/06/09 02:32:00;;;;;;;13.07;11.97;;;;;;;15.65;77.57;100150.71;459387;115;925692;-68
2021/06/09 02:33:04;;;;;;;13.21;11.77;;;;;;;15.64;77.58;100157.29;459010;115;924055;-68
2021/06/09 02:34:22;;;;;;;11.94;10.87;;;;;;;15.64;77.55;100149.05;457899;113;923210;-66
2021/06/09 02:35:27;;;;;;;12.24;11.23;;;;;;;15.65;77.53;100147.12;457390;114;926348;-68
2021/06/09 02:36:31;;;;;;;12.67;11.45;;;;;;;15.66;77.46;100151.52;448913;115;923982;-67
2021/06/09 02:37:37;;;;;;;12.88;11.19;;;;;;;15.67;77.54;100154.01;438036;118;922868;-67
2021/06/09 02:38:42;;;;;;;12.38;10.90;;;;;;;15.71;77.53;100159.84;450380;115;925213;-68
2021/06/09 02:39:48;;;;;;;13.57;11.49;;;;;;;15.75;77.44;100155.48;457955;115;924489;-68
2021/06/09 02:40:57;;;;;;;12.28;11.23;;;;;;;15.79;77.31;100157.44;448854;115;926498;-68
2021/06/09 02:42:11;;;;;;;11.58;10.62;;;;;;;15.83;77.29;100153.08;452073;115;924464;-69
2021/06/09 02:43:16;;;;;;;11.66;10.64;;;;;;;15.89;77.30;100153.13;459726;115;926318;-66
2021/06/09 02:44:21;;;;;;;11.63;10.59;;;;;;;15.91;77.16;100150.95;459975;114;924142;-68
2021/06/09 02:45:27;;;;;;;11.77;10.95;;;;;;;15.93;77.10;100154.28;449215;115;925013;-67
2021/06/09 02:47:00;;;;;;;11.55;10.68;;;;;;;15.94;76.98;100155.92;451858;115;924381;-66
2021/06/09 02:48:09;;;;;;;10.45;9.54;;;;;;;15.94;76.91;100151.25;459763;113;925848;-66
2021/06/09 02:49:16;;;;;;;9.18;8.39;;;;;;;15.93;76.89;100154.28;449766;117;922549;-66
2021/06/09 02:50:23;;;;;;;9.07;8.37;;;;;;;15.94;76.82;100158.67;449091;116;924133;-64
2021/06/09 02:52:06;;;;;;;9.24;7.73;;;;;;;15.92;76.80;100158.95;456852;114;924003;-66
2021/06/09 02:53:26;;;;;;;9.02;8.21;;;;;;;15.91;76.77;100157.29;459266;114;924680;-66
2021/06/09 02:54:53;;;;;;;8.31;7.68;;;;;;;15.86;76.67;100159.99;456312;115;924025;-65
2021/06/09 02:56:18;;;;;;;7.91;7.31;;;;;;;15.84;76.61;100162.16;458598;113;924930;-65
2021/06/09 02:57:48;;;;;;;8.04;7.34;;;;;;;15.82;76.68;100164.36;458545;115;924529;-64
2021/06/09 02:59:09;;;;;;;9.26;8.43;;;;;;;15.80;76.75;100161.86;457926;115;924686;-67
2021/06/09 03:00:24;;;;;;;9.08;8.31;;;;;;;15.81;76.68;100168.19;449356;115;923928;-66
2021/06/09 03:01:46;;;;;;;9.45;8.69;;;;;;;15.80;76.71;100166.52;451025;115;924070;-65
2021/06/09 03:02:59;;;;;;;8.72;8.02;;;;;;;15.81;76.64;100169.02;458558;113;924081;-66
2021/06/09 03:04:21;;;;;;;8.58;7.86;;;;;;;15.84;76.57;100167.66;458947;115;923941;-65
2021/06/09 03:05:44;;;;;;;7.85;7.18;;;;;;;15.85;76.50;100170.16;459488;114;927351;-66
2021/06/09 03:07:01;;;;;;;7.88;7.22;;;;;;;15.89;76.38;100170.45;450390;115;925397;-65
2021/06/09 03:08:37;;;;;;;7.89;7.11;;;;;;;16.04;76.32;100164.30;469781;110;949532;-64
2021/06/09 03:10:05;;;;;;;8.13;7.35;;;;;;;15.97;76.26;100163.67;454846;116;924061;-65
2021/06/09 03:11:18;;;;;;;8.23;7.44;;;;;;;16.01;76.18;100173.05;453842;114;924046;-66
2021/06/09 03:12:40;;;;;;;9.59;8.51;;;;;;;16.04;75.98;100169.80;454415;114;924099;-65
2021/06/09 03:14:01;;;;;;;9.47;8.64;;;;;;;16.06;75.88;100173.09;453757;114;926309;-64
2021/06/09 03:15:13;;;;;;;10.62;8.97;;;;;;;16.08;75.89;100168.17;455228;116;922518;-66
2021/06/09 03:16:34;;;;;;;9.52;8.70;;;;;;;16.10;75.88;100166.80;454166;115;922964;-66
2021/06/09 03:17:55;;;;;;;10.43;9.44;;;;;;;16.11;75.88;100165.72;454527;116;924226;-65
2021/06/09 03:19:06;;;;;;;9.70;8.88;;;;;;;16.14;75.76;100167.13;454507;116;922438;-70
2021/06/09 03:20:19;;;;;;;9.92;9.10;;;;;;;16.17;75.74;100170.18;455006;114;922948;-68
2021/06/09 03:21:33;;;;;;;11.70;10.78;;;;;;;16.18;75.73;100165.52;451070;115;924418;-69
2021/06/09 03:22:52;;;;;;;12.16;11.20;;;;;;;16.21;75.76;100167.72;444690;117;924017;-70
2021/06/09 03:24:07;;;;;;;13.14;12.04;;;;;;;16.24;75.67;100167.22;451779;116;925754;-69
2021/06/09 03:25:17;;;;;;;13.72;12.67;;;;;;;16.27;75.63;100166.68;455503;115;924040;-69
2021/06/09 03:26:43;;;;;;;14.53;13.27;;;;;;;16.27;75.55;100170.27;453665;116;923857;-67
2021/06/09 03:27:56;;;;;;;14.71;13.51;;;;;;;16.30;75.48;100170.84;456889;113;923110;-68
2021/06/09 03:29:09;;;;;;;15.75;13.88;;;;;;;16.30;75.48;100171.67;456225;115;922892;-67
2021/06/09 03:30:17;;;;;;;15.42;13.97;;;;;;;16.32;75.47;100165.92;454617;114;924758;-68
2021/06/09 03:31:28;;;;;;;16.11;14.57;;;;;;;16.33;75.51;100160.13;455129;114;922626;-66
2021/06/09 03:32:43;;;;;;;15.71;14.49;;;;;;;16.36;75.47;100158.79;454583;114;925035;-67
2021/06/09 03:33:52;;;;;;;15.11;13.98;;;;;;;16.39;75.38;100159.08;439789;117;924145;-67
2021/06/09 03:35:11;;;;;;;15.19;13.98;;;;;;;16.42;75.28;100157.74;440830;117;924138;-67
2021/06/09 03:36:26;;;;;;;15.74;14.28;;;;;;;16.44;75.19;100167.38;448480;116;923094;-68
2021/06/09 03:37:34;;;;;;;15.75;14.45;;;;;;;16.47;75.11;100166.03;454298;115;924022;-67
2021/06/09 03:38:48;;;;;;;15.44;13.98;;;;;;;16.48;75.02;100168.53;454583;114;922434;-67
2021/06/09 03:40:07;;;;;;;15.29;13.91;;;;;;;16.48;75.03;100171.28;454742;114;923920;-68
2021/06/09 03:41:31;;;;;;;16.18;14.75;;;;;;;16.51;75.01;100175.41;456562;116;922770;-69
2021/06/09 03:42:38;;;;;;;15.06;13.83;;;;;;;16.53;74.95;100175.98;449742;116;926680;-69
2021/06/09 03:43:47;;;;;;;14.81;13.62;;;;;;;16.53;74.88;100167.73;449458;116;922715;-68
2021/06/09 03:44:56;;;;;;;14.92;13.71;;;;;;;16.55;74.87;100168.28;456844;116;924531;-70
2021/06/09 03:46:06;;;;;;;15.51;14.20;;;;;;;16.53;74.91;100167.73;454962;114;931783;-69
2021/06/09 03:47:12;;;;;;;16.74;14.74;;;;;;;16.54;74.94;100161.94;457238;116;923033;-70
2021/06/09 03:48:18;;;;;;;16.18;14.38;;;;;;;16.53;74.99;100162.23;455151;114;923953;-71
2021/06/09 03:49:26;;;;;;;14.61;13.27;;;;;;;16.54;75.00;100166.65;456786;114;925960;-70
2021/06/09 03:50:34;;;;;;;16.11;14.85;;;;;;;16.54;75.01;100161.14;454997;116;924077;-68
2021/06/09 03:51:41;;;;;;;15.92;14.57;;;;;;;16.53;75.02;100165.81;456605;114;922432;-70
2021/06/09 03:52:48;;;;;;;15.63;14.32;;;;;;;16.53;74.96;100162.23;455070;114;925740;-69
2021/06/09 03:53:58;;;;;;;16.37;15.10;;;;;;;16.53;74.99;100164.98;454659;114;924041;-67
2021/06/09 03:55:09;;;;;;;16.60;15.06;;;;;;;16.51;74.97;100164.41;455553;115;925524;-70
2021/06/09 03:56:18;;;;;;;16.32;14.94;;;;;;;16.51;75.00;100167.16;454020;114;924071;-68
2021/06/09 03:57:24;;;;;;;16.14;14.68;;;;;;;16.50;75.04;100169.08;447483;116;932739;-68
2021/06/09 03:58:30;;;;;;;17.28;15.64;;;;;;;16.51;75.12;100165.23;447900;116;924516;-70
2021/06/09 03:59:36;;;;;;;17.24;15.67;;;;;;;16.52;75.18;100166.91;422602;123;924177;-70
2021/06/09 04:00:51;;;;;;;17.91;16.29;;;;;;;16.54;75.21;100163.89;427990;116;923057;-70
2021/06/09 04:02:01;;;;;;;17.24;15.85;;;;;;;16.52;75.22;100164.15;455914;114;923074;-69
2021/06/09 04:03:07;;;;;;;17.79;15.92;;;;;;;16.52;75.27;100163.31;456222;114;922498;-67
2021/06/09 04:04:36;;;;;;;18.93;17.43;;;;;;;16.51;75.40;100169.91;448837;116;924073;-70
2021/06/09 04:05:43;;;;;;;21.42;19.21;;;;;;;16.50;75.52;100170.99;449470;116;926193;-69
2021/06/09 04:06:52;;;;;;;23.72;21.51;;;;;;;16.49;75.54;100172.92;449524;116;924292;-66
2021/06/09 04:08:01;;;;;;;24.25;22.15;;;;;;;16.47;75.65;100166.86;450566;116;922707;-69
2021/06/09 04:09:06;;;;;;;23.73;21.63;;;;;;;16.45;75.73;100168.20;453746;115;924286;-69
2021/06/09 04:10:13;;;;;;;26.06;23.37;;;;;;;16.44;75.82;100169.30;453803;116;923288;-70
2021/06/09 04:11:18;;;;;;;25.82;23.08;;;;;;;16.40;75.90;100171.75;456679;114;922285;-70
2021/06/09 04:12:26;;;;;;;26.76;23.48;;;;;;;16.38;75.94;100170.34;441966;119;923947;-69
2021/06/09 04:13:31;;;;;;;28.14;25.43;;;;;;;16.36;76.08;100169.80;443937;116;922678;-71
2021/06/09 04:14:44;;;;;;;28.87;25.74;;;;;;;16.36;76.23;100170.62;456515;115;922451;-66
2021/06/09 04:15:52;;;;;;;26.13;23.65;;;;;;;16.37;76.20;100174.21;454845;115;924489;-64
2021/06/09 04:17:05;;;;;;;25.87;23.37;;;;;;;16.37;76.17;100172.30;453547;114;924084;-65
2021/06/09 04:18:18;;;;;;;23.60;21.67;;;;;;;16.38;76.07;100170.34;453698;116;924106;-66
2021/06/09 04:19:37;;;;;;;23.18;21.06;;;;;;;16.38;76.12;100159.34;448576;118;926090;-64
2021/06/09 04:20:57;;;;;;;20.96;19.16;;;;;;;16.38;76.18;100170.34;443282;118;924112;-64
2021/06/09 04:22:09;;;;;;;22.21;20.43;;;;;;;16.37;76.29;100161.28;452021;116;924006;-64
2021/06/09 04:23:21;;;;;;;22.38;20.55;;;;;;;16.36;76.32;100161.54;449057;116;923060;-64
2021/06/09 04:24:39;;;;;;;21.17;19.49;;;;;;;16.34;76.48;100163.71;444342;116;924596;-66
2021/06/09 04:25:51;;;;;;;19.23;17.71;;;;;;;16.32;76.57;100163.17;451270;116;925980;-65
2021/06/09 04:27:03;;;;;;;18.77;17.09;;;;;;;16.31;76.62;100164.25;456241;116;923976;-66
2021/06/09 04:28:14;;;;;;;19.02;17.25;;;;;;;16.30;76.62;100165.34;456319;114;923506;-63
2021/06/09 04:29:30;;;;;;;17.91;16.61;;;;;;;16.30;76.65;100162.59;449014;116;924091;-66
2021/06/09 04:30:58;;;;;;;18.17;16.94;;;;;;;16.32;76.71;100163.97;451589;116;932138;-63
2021/06/09 04:32:54;;;;;;;18.04;16.74;;;;;;;16.34;76.75;100161.80;455791;114;925003;-65
2021/06/09 04:34:05;;;;;;;18.04;16.90;;;;;;;16.38;76.68;100164.84;453898;116;922662;-64
2021/06/09 04:35:12;;;;;;;20.67;19.06;;;;;;;16.42;76.57;100166.00;453047;115;922732;-68
2021/06/09 04:36:16;;;;;;;19.93;18.47;;;;;;;16.43;76.47;100162.16;450470;117;930442;-66
2021/06/09 04:37:24;;;;;;;21.02;19.25;;;;;;;16.44;76.37;100163.79;451015;116;922662;-64
2021/06/09 04:38:28;;;;;;;21.91;20.10;;;;;;;16.43;76.34;100159.41;455883;114;925983;-64
2021/06/09 04:39:38;;;;;;;21.93;19.97;;;;;;;16.43;76.39;100160.20;456517;116;923023;-64
2021/06/09 04:40:44;;;;;;;23.77;21.51;;;;;;;16.43;76.46;100160.20;456099;116;922626;-64
2021/06/09 04:41:48;;;;;;;23.91;21.93;;;;;;;16.44;76.49;100155.53;456429;116;923980;-64
2021/06/09 04:42:54;;;;;;;25.17;22.64;;;;;;;16.44;76.50;100163.79;456308;115;924080;-63
2021/06/09 04:43:58;;;;;;;26.67;23.83;;;;;;;16.44;76.52;100158.28;456200;114;923181;-64
2021/06/09 04:45:03;;;;;;;27.24;24.42;;;;;;;16.44;76.51;100159.13;453953;115;923928;-64
2021/06/09 04:46:11;;;;;;;27.09;24.45;;;;;;;16.45;76.54;100157.20;452243;116;926541;-67
2021/06/09 04:47:20;;;;;;;28.97;25.30;;;;;;;16.44;76.56;100159.13;448869;117;922777;-63
2021/06/09 04:48:24;;;;;;;31.26;27.43;;;;;;;16.45;76.62;100163.53;450843;114;922737;-66
2021/06/09 04:49:34;;;;;;;38.61;28.49;;;;;;;16.47;76.69;100166.03;453706;115;923020;-66
2021/06/09 04:50:43;;;;;;;36.27;29.81;;;;;;;16.47;76.78;100168.78;452221;115;922618;-66
2021/06/09 04:51:49;;;;;;;45.22;33.34;;;;;;;16.48;76.83;100164.95;451467;114;924083;-64
2021/06/09 04:53:10;;;;;;;51.09;32.04;;;;;;;16.48;76.77;100168.53;453219;116;922801;-65
2021/06/09 04:54:07;;;;;;;45.90;32.05;;;;;;;16.51;76.71;100172.66;451948;116;922980;-66
2021/06/09 04:55:12;;;;;;;47.24;32.61;;;;;;;16.52;76.76;100171.58;439175;118;922782;-65
2021/06/09 04:56:17;;;;;;;47.20;32.53;;;;;;;16.56;76.75;100170.78;439310;116;923970;-65
2021/06/09 04:57:21;;;;;;;51.90;32.28;;;;;;;16.59;76.52;100164.77;452568;115;933519;-63
2021/06/09 04:58:25;;;;;;;47.44;31.15;;;;;;;16.62;76.41;100174.43;450446;116;923310;-65
2021/06/09 04:59:29;;;;;;;50.45;32.95;;;;;;;16.63;76.38;100165.08;450150;117;922872;-66
2021/06/09 05:00:36;;;;;;;48.67;32.38;;;;;;;16.66;76.34;100168.12;450864;116;922884;-65
2021/06/09 05:01:53;;;;;;;51.50;32.06;;;;;;;16.68;76.30;100167.86;449081;117;922572;-66
2021/06/09 05:03:13;;;;;;;51.66;32.72;;;;;;;16.70;76.15;100173.12;448745;116;926387;-66
2021/06/09 05:04:19;;;;;;;57.54;32.51;;;;;;;16.72;76.17;100165.41;450772;116;923275;-65
2021/06/09 05:05:23;;;;;;;54.81;32.52;;;;;;;16.73;76.22;100173.41;449893;116;924158;-68
2021/06/09 05:06:29;;;;;;;57.04;33.52;;;;;;;16.75;76.13;100164.89;456151;114;922495;-68
2021/06/09 05:07:33;;;;;;;55.32;32.39;;;;;;;16.77;76.11;100162.68;456579;116;923160;-71
2021/06/09 05:08:40;;;;;;;54.09;31.97;;;;;;;16.79;76.08;100171.52;455360;115;930894;-69
2021/06/09 05:09:51;;;;;;;52.39;31.36;;;;;;;16.82;76.17;100169.05;454120;114;932696;-68
2021/06/09 05:11:07;;;;;;;45.41;29.55;;;;;;;16.85;76.19;100165.78;454270;116;925523;-68
2021/06/09 05:12:18;;;;;;;54.72;30.55;;;;;;;16.89;76.16;100166.90;455038;116;923446;-70
2021/06/09 05:13:32;;;;;;;50.56;29.20;;;;;;;16.95;76.10;100171.34;454073;114;923159;-69
2021/06/09 05:14:46;;;;;;;51.31;28.93;;;;;;;16.99;75.93;100174.38;456524;114;922587;-68
2021/06/09 05:15:57;;;;;;;49.77;29.09;;;;;;;17.03;75.71;100173.61;449084;116;923378;-67
2021/06/09 05:17:04;;;;;;;45.80;28.74;;;;;;;17.07;75.54;100177.48;450722;116;922659;-71
2021/06/09 05:18:30;;;;;;;50.96;28.06;;;;;;;17.10;75.43;100181.61;454140;114;926609;-68
2021/06/09 05:19:39;;;;;;;49.16;28.40;;;;;;;17.14;75.33;100181.92;447123;116;923453;-71
2021/06/09 05:20:45;;;;;;;45.32;25.93;;;;;;;17.17;75.30;100184.95;450683;116;922743;-74
2021/06/09 05:21:54;;;;;;;43.78;27.37;;;;;;;17.20;75.22;100181.66;453632;114;923021;-70
2021/06/09 05:23:23;;;;;;;47.42;27.58;;;;;;;17.23;75.10;100177.55;454295;115;924752;-68
2021/06/09 05:24:31;;;;;;;45.04;24.81;;;;;;;17.26;74.98;100188.02;449502;117;924043;-66
2021/06/09 05:25:40;;;;;;;42.68;24.88;;;;;;;17.29;74.81;100184.75;450586;116;924000;-66
2021/06/09 05:26:47;;;;;;;38.52;24.11;;;;;;;17.29;74.60;100185.58;454981;116;924498;-65